Saint David's, Bermuda

5:57 PM ADT on August 23, 2014 (GMT -0300)
Bermuda International | Change Station
CLOSE
Current Station
Airport
Location: St. David's,
Elevation: 10 ft
Nearby Weather Stations

Elev 10 ft 32.36 °N, 64.68 °W | Updated 2 minutes ago

Mostly Cloudy
Mostly Cloudy
81 °F
Feels Like 86 °F
N
21
Wind Variable Wind from West

Today
High -- | Low -- °F
--% Chance of Precip.
Yesterday
High -- | Low -- °F
Precip. -- in
6:47 AM 7:54 PM
Waning Crescent, 3% visible
Pressure 29.86 in
Visibility 6.2 miles
Clouds Scattered Clouds 1300 ft
Mostly Cloudy 6500 ft
Mostly Cloudy 14000 ft
Mostly Cloudy 30000 ft
Heat Index 86 °F
Dew Point 75 °F
Humidity 84%
Rainfall 0.00 in
Snow Depth Not available.
UV 1 out of 12
Pollen Not available.
Air Quality Not available.
Flu Activity Not available.
METAR TXKF 232055Z 26018KT 9999 VCSH SCT013 BKN065 BKN140 BKN300 27/24 Q1011

More Conditions Fewer Conditions

Pressure 29.86 in
Visibility 6.2 miles
Clouds Scattered Clouds 1300 ft
Mostly Cloudy 6500 ft
Mostly Cloudy 14000 ft
Mostly Cloudy 30000 ft
Heat Index 86 °F
Dew Point 75 °F
Humidity 84%
Rainfall 0.00 in
Snow Depth Not available.
UV 1 out of 12
Pollen Not available.
Air Quality Not available.
Flu Activity Not available.
METAR TXKF 232055Z 26018KT 9999 VCSH SCT013 BKN065 BKN140 BKN300 27/24 Q1011

More Conditions Fewer Conditions

10-Day Weather Forecast

Almanac

Astronomy

Aug. 23, 2014 Rise Set
Actual Time 6:47 AM ADT 7:54 PM ADT
Civil Twilight 6:22 AM ADT 8:19 PM ADT
Nautical Twilight 5:52 AM ADT 8:49 PM ADT
Astronomical Twilight 5:21 AM ADT 9:20 PM ADT
Moon 5:02 AM ADT 6:35 PM ADT
Length of Visible Light 13h 57m
Length of Day
13h 06m
Tomorrow will be 1m 50s shorter.
Waning Crescent, 3% of the Moon is Illuminated
Today
Waning Crescent
Aug 25
New
Sep 2
First Quarter
Sep 8
Full
Sep 15
Last Quarter

Today's Extremes

Country Highs Country Lows

Community

WunderPhotos

Upload Photos

1,746,622 photos uploaded!

WunderBlogs® & News

By Dr. Jeff Masters
Director of Meteorology, Weather Underground
By Kari Strenfel
Meteorologist, Weather Underground
By Christopher C. Burt
Weather Historian, Weather Underground
August 23, 2014
August 23, 2014
August 23, 2014

Nearby

Snow Depth

Not available.

Earthquake Activity

City Distance Mag. Time & Date
No recent earthquake activity has been reported nearby.
Minimum magnitude displayed is 2.5.

Coastal Water Temperatures

Place Temperature
No Stations Reporting

Nearby Weather Stations